Time;durP1;ratioP1;P1;durP2;ratioP2;P2;SDS_P1;SDS_P2;PMS_P1;PMS_P2;Temp;Humidity;BMP_temperature;BMP_pressure;BME280_temperature;BME280_humidity;BME280_pressure;Samples;Min_cycle;Max_cycle;Signal;HPM_P1;HPM_P2
2021/09/03 00:00:02;;;;;;;3.28;0.80;;;15.50;99.90;;;;;;5109143;28;20589;-73
2021/09/03 00:02:27;;;;;;;1.13;0.68;;;15.50;99.90;;;;;;5090810;28;20179;-72
2021/09/03 00:04:53;;;;;;;1.63;1.30;;;15.40;99.90;;;;;;5090675;28;20198;-73
2021/09/03 00:07:20;;;;;;;0.20;0.20;;;15.40;99.90;;;;;;5108805;28;20187;-73
2021/09/03 00:09:45;;;;;;;0.43;0.43;;;15.40;99.90;;;;;;5104595;28;20282;-73
2021/09/03 00:12:11;;;;;;;0.20;0.20;;;15.40;99.90;;;;;;5082163;28;20179;-73
2021/09/03 00:14:37;;;;;;;0.50;0.50;;;15.40;99.90;;;;;;5108907;28;20195;-73
2021/09/03 00:17:03;;;;;;;0.95;0.88;;;15.30;99.90;;;;;;5108812;28;20310;-73
2021/09/03 00:19:30;;;;;;;0.95;0.95;;;15.30;99.90;;;;;;5104307;28;20179;-73
2021/09/03 00:21:55;;;;;;;0.25;0.25;;;15.30;99.90;;;;;;5090630;28;20171;-73
2021/09/03 00:24:22;;;;;;;0.57;0.57;;;15.30;99.90;;;;;;5108888;28;20262;-72
2021/09/03 00:26:49;;;;;;;1.02;1.02;;;15.30;99.90;;;;;;5108845;28;20191;-73
2021/09/03 00:29:15;;;;;;;2.17;1.95;;;15.30;99.90;;;;;;5108884;28;20156;-73
2021/09/03 00:31:41;;;;;;;1.70;0.73;;;15.20;99.90;;;;;;5108896;28;20160;-72
2021/09/03 00:34:07;;;;;;;1.33;0.25;;;15.30;99.90;;;;;;5090543;28;20168;-73
2021/09/03 00:36:33;;;;;;;1.58;1.48;;;15.10;99.90;;;;;;5108823;28;20191;-72
2021/09/03 00:38:59;;;;;;;0.30;0.30;;;15.10;99.90;;;;;;5108681;28;20190;-73
2021/09/03 00:41:25;;;;;;;1.83;1.65;;;15.00;99.90;;;;;;5090309;28;20167;-72
2021/09/03 00:43:51;;;;;;;1.55;1.55;;;15.00;99.90;;;;;;5090053;28;20698;-73
2021/09/03 00:46:17;;;;;;;3.00;1.00;;;14.90;99.90;;;;;;5108307;28;20202;-73
2021/09/03 00:48:43;;;;;;;0.50;0.50;;;14.90;99.90;;;;;;5108460;28;20227;-72
2021/09/03 00:51:09;;;;;;;5.47;2.10;;;14.80;99.90;;;;;;5090021;28;20167;-72
2021/09/03 00:53:36;;;;;;;1.27;1.17;;;14.70;99.90;;;;;;5108201;28;20223;-73
2021/09/03 00:56:03;;;;;;;0.85;0.85;;;14.70;99.90;;;;;;5089921;28;20187;-73
2021/09/03 00:58:29;;;;;;;0.50;0.50;;;14.60;99.90;;;;;;5089960;28;20175;-73
2021/09/03 01:00:55;;;;;;;1.85;0.50;;;14.60;99.90;;;;;;5090006;28;20197;-72
2021/09/03 01:03:21;;;;;;;0.85;0.85;;;14.60;99.90;;;;;;5108316;28;20168;-73
2021/09/03 01:05:47;;;;;;;1.75;0.50;;;14.60;99.90;;;;;;5079871;28;20198;-72
2021/09/03 01:08:13;;;;;;;0.52;0.40;;;14.50;99.90;;;;;;5069659;28;20167;-73
2021/09/03 01:10:39;;;;;;;0.47;0.40;;;14.50;99.90;;;;;;5069767;28;20160;-73
2021/09/03 01:13:06;;;;;;;1.10;1.05;;;14.50;99.90;;;;;;5087738;28;20160;-72
2021/09/03 01:15:32;;;;;;;0.52;0.50;;;14.40;99.90;;;;;;5087850;28;20167;-72
2021/09/03 01:17:58;;;;;;;0.80;0.80;;;14.50;99.90;;;;;;5069836;28;20227;-72
2021/09/03 01:20:24;;;;;;;1.23;0.75;;;14.40;99.90;;;;;;5069759;28;20235;-72
2021/09/03 01:22:50;;;;;;;13.23;1.25;;;14.40;99.90;;;;;;5087784;28;20164;-72
2021/09/03 01:25:16;;;;;;;0.75;0.60;;;14.40;99.90;;;;;;5069513;28;20214;-72
2021/09/03 01:27:43;;;;;;;0.47;0.47;;;14.40;99.90;;;;;;5088893;28;20551;-72
2021/09/03 01:30:15;;;;;;;0.40;0.30;;;14.40;99.90;;;;;;5091536;28;20156;-72
2021/09/03 01:32:42;;;;;;;0.65;0.65;;;14.40;99.90;;;;;;5091515;28;20186;-72
2021/09/03 01:35:08;;;;;;;1.13;1.08;;;14.40;99.90;;;;;;5091320;28;20163;-72
2021/09/03 01:37:35;;;;;;;0.70;0.52;;;14.50;99.90;;;;;;5073135;28;20200;-72
2021/09/03 01:40:02;;;;;;;0.50;0.40;;;14.40;99.90;;;;;;5073117;28;20221;-72
2021/09/03 01:42:29;;;;;;;1.85;1.75;;;14.50;99.90;;;;;;5091176;28;20309;-72
2021/09/03 01:44:55;;;;;;;0.25;0.25;;;14.40;99.90;;;;;;5091106;28;20707;-72
2021/09/03 01:47:21;;;;;;;2.90;1.23;;;14.40;99.90;;;;;;5091066;28;20187;-72
2021/09/03 01:49:47;;;;;;;0.30;0.30;;;14.40;99.90;;;;;;5072985;28;20231;-72
2021/09/03 01:52:13;;;;;;;0.55;0.55;;;14.30;99.90;;;;;;5069206;28;20243;-72
2021/09/03 01:54:39;;;;;;;0.30;0.30;;;14.30;99.90;;;;;;5070878;28;20168;-72
2021/09/03 01:57:04;;;;;;;1.75;0.68;;;14.30;99.90;;;;;;5052679;28;20212;-72
2021/09/03 01:59:31;;;;;;;2.10;1.33;;;14.20;99.90;;;;;;5070824;28;20191;-72
2021/09/03 02:01:57;;;;;;;0.47;0.47;;;14.20;99.90;;;;;;5052760;28;20173;-73
2021/09/03 02:04:22;;;;;;;0.20;0.20;;;14.10;99.90;;;;;;5052731;28;20201;-73
2021/09/03 02:06:48;;;;;;;0.10;0.10;;;14.00;99.90;;;;;;5052692;28;20215;-72
2021/09/03 02:09:14;;;;;;;0.73;0.73;;;14.00;99.90;;;;;;5070499;28;20157;-73
2021/09/03 02:11:41;;;;;;;9.00;1.58;;;14.00;99.90;;;;;;5052531;28;20165;-73
2021/09/03 02:14:07;;;;;;;0.75;0.57;;;14.10;99.90;;;;;;5052561;28;20169;-73
2021/09/03 02:16:33;;;;;;;1.95;0.98;;;14.10;99.90;;;;;;5070432;28;20203;-73
2021/09/03 02:18:59;;;;;;;0.38;0.38;;;14.00;99.90;;;;;;5070373;28;20157;-73
2021/09/03 02:21:26;;;;;;;1.00;1.00;;;14.00;99.90;;;;;;5070272;28;20173;-73
2021/09/03 02:23:53;;;;;;;0.70;0.70;;;14.00;99.90;;;;;;5070190;28;20184;-73
2021/09/03 02:26:19;;;;;;;0.63;0.22;;;14.00;99.90;;;;;;5052240;28;20223;-73
2021/09/03 02:28:45;;;;;;;2.45;1.00;;;13.90;99.90;;;;;;5070202;28;20165;-73
2021/09/03 02:31:11;;;;;;;0.80;0.80;;;13.90;99.90;;;;;;5052317;28;20609;-73
2021/09/03 02:33:37;;;;;;;1.38;1.30;;;13.80;99.90;;;;;;5070094;28;20153;-73
2021/09/03 02:36:03;;;;;;;2.38;2.13;;;13.70;99.90;;;;;;5070295;28;20192;-73
2021/09/03 02:38:29;;;;;;;3.15;2.78;;;13.70;99.90;;;;;;5051974;28;20181;-73
2021/09/03 02:40:55;;;;;;;0.20;0.20;;;13.70;99.90;;;;;;5070131;28;20241;-72
2021/09/03 02:43:21;;;;;;;1.67;0.55;;;13.70;99.90;;;;;;5070172;28;20161;-72
2021/09/03 02:45:47;;;;;;;3.70;0.70;;;13.70;99.90;;;;;;5051847;28;20572;-73
2021/09/03 02:48:13;;;;;;;0.80;0.80;;;13.70;99.90;;;;;;5069878;28;20149;-73
2021/09/03 02:50:39;;;;;;;0.38;0.38;;;13.70;99.90;;;;;;5051758;28;20219;-75
2021/09/03 02:53:05;;;;;;;0.70;0.70;;;13.70;99.90;;;;;;5069720;28;20224;-74
2021/09/03 02:55:31;;;;;;;1.02;0.82;;;13.80;99.90;;;;;;5051660;28;20279;-73
2021/09/03 02:57:57;;;;;;;0.70;0.43;;;13.70;99.90;;;;;;5070025;28;20271;-73
2021/09/03 03:00:24;;;;;;;0.63;0.63;;;13.70;99.90;;;;;;5051768;28;20200;-74
2021/09/03 03:02:51;;;;;;;0.73;0.73;;;13.60;99.90;;;;;;5069642;28;20161;-75
2021/09/03 03:05:17;;;;;;;3.60;0.65;;;13.60;99.90;;;;;;5069544;28;20199;-73
2021/09/03 03:07:43;;;;;;;0.40;0.40;;;13.60;99.90;;;;;;5069317;28;20189;-73
2021/09/03 03:10:10;;;;;;;2.80;1.90;;;13.50;99.90;;;;;;5069384;28;20228;-72
2021/09/03 03:12:36;;;;;;;1.85;0.73;;;13.40;99.90;;;;;;5069549;28;20165;-72
2021/09/03 03:15:04;;;;;;;0.55;0.55;;;13.40;99.90;;;;;;5051477;28;20165;-72
2021/09/03 03:17:30;;;;;;;0.85;0.85;;;13.30;99.90;;;;;;5051219;28;20672;-72
2021/09/03 03:19:56;;;;;;;1.02;0.85;;;13.40;99.90;;;;;;5069273;28;20167;-72
2021/09/03 03:22:22;;;;;;;0.35;0.35;;;13.30;99.90;;;;;;5069353;28;20165;-72
2021/09/03 03:24:48;;;;;;;0.70;0.70;;;13.30;99.90;;;;;;5051206;28;20552;-72
2021/09/03 03:27:13;;;;;;;0.90;0.85;;;13.20;99.90;;;;;;5069248;28;20185;-72
2021/09/03 03:29:39;;;;;;;0.65;0.65;;;13.10;99.90;;;;;;5051218;28;20184;-72
2021/09/03 03:32:05;;;;;;;0.22;0.22;;;13.10;99.90;;;;;;5069215;28;20167;-73
2021/09/03 03:34:31;;;;;;;0.52;0.52;;;13.10;99.90;;;;;;5069082;28;20176;-72
2021/09/03 03:36:57;;;;;;;0.22;0.22;;;13.00;99.90;;;;;;5051011;28;20196;-72
2021/09/03 03:39:23;;;;;;;0.43;0.43;;;13.00;99.90;;;;;;5068940;28;20231;-72
2021/09/03 03:41:50;;;;;;;0.43;0.43;;;13.00;99.90;;;;;;5068869;28;20171;-72
2021/09/03 03:44:16;;;;;;;0.52;0.52;;;13.00;99.90;;;;;;5068730;28;20192;-73
2021/09/03 03:46:42;;;;;;;4.53;1.52;;;13.00;99.90;;;;;;5050832;28;20197;-72
2021/09/03 03:49:08;;;;;;;1.27;1.17;;;13.00;99.90;;;;;;5068699;28;20165;-72
2021/09/03 03:51:34;;;;;;;0.95;0.73;;;12.90;99.90;;;;;;5068261;28;20168;-75
2021/09/03 03:53:59;;;;;;;0.93;0.90;;;12.90;99.90;;;;;;5086828;28;20228;-73
2021/09/03 03:56:25;;;;;;;2.10;1.20;;;12.80;99.90;;;;;;5088679;28;20196;-72
2021/09/03 03:58:51;;;;;;;0.68;0.68;;;12.80;99.90;;;;;;5088780;28;20175;-75
2021/09/03 04:01:17;;;;;;;0.70;0.70;;;12.80;99.90;;;;;;5088651;28;20160;-73
2021/09/03 04:03:43;;;;;;;0.35;0.35;;;12.80;99.90;;;;;;5070510;28;20176;-74
2021/09/03 04:06:09;;;;;;;0.50;0.50;;;12.80;99.90;;;;;;5070399;28;20214;-73
2021/09/03 04:08:35;;;;;;;0.22;0.22;;;12.70;99.90;;;;;;5070565;28;20168;-72
2021/09/03 04:11:00;;;;;;;0.13;0.13;;;12.60;99.90;;;;;;5070635;28;20178;-73
2021/09/03 04:13:26;;;;;;;2.28;1.55;;;12.60;99.90;;;;;;5070505;28;20168;-73
2021/09/03 04:15:52;;;;;;;0.40;0.38;;;12.60;99.90;;;;;;5088427;28;20199;-75
2021/09/03 04:18:18;;;;;;;0.30;0.30;;;12.60;99.90;;;;;;5088424;28;20164;-75
2021/09/03 04:20:44;;;;;;;1.13;1.13;;;12.60;99.90;;;;;;5070388;28;20175;-74
2021/09/03 04:23:10;;;;;;;0.10;0.10;;;12.60;99.90;;;;;;5070249;28;20183;-74
2021/09/03 04:25:37;;;;;;;1.48;0.50;;;12.60;99.90;;;;;;5070159;28;20204;-74
2021/09/03 04:28:03;;;;;;;0.50;0.50;;;12.60;99.90;;;;;;5070519;28;20178;-74
2021/09/03 04:30:29;;;;;;;1.17;0.93;;;12.70;99.90;;;;;;5088518;28;20157;-73
2021/09/03 04:32:55;;;;;;;1.33;1.33;;;12.70;99.90;;;;;;5070305;28;20160;-74
2021/09/03 04:35:21;;;;;;;1.25;1.25;;;12.60;99.90;;;;;;5088445;28;20216;-75
2021/09/03 04:37:49;;;;;;;0.90;0.63;;;12.60;99.90;;;;;;5070301;28;20201;-73
2021/09/03 04:40:18;;;;;;;0.40;0.40;;;12.60;99.90;;;;;;5088273;28;20164;-73
2021/09/03 04:42:44;;;;;;;0.43;0.43;;;12.70;99.90;;;;;;5088448;28;20156;-73
2021/09/03 04:45:11;;;;;;;0.88;0.88;;;12.70;99.90;;;;;;5070151;28;20203;-74
2021/09/03 04:47:38;;;;;;;0.52;0.52;;;12.80;99.90;;;;;;5088273;28;20260;-74
2021/09/03 04:50:05;;;;;;;0.60;0.60;;;12.80;99.90;;;;;;5088360;28;20149;-72
2021/09/03 04:52:31;;;;;;;0.35;0.35;;;12.80;99.90;;;;;;5088201;28;20291;-72
2021/09/03 04:54:57;;;;;;;0.43;0.43;;;12.90;99.90;;;;;;5088181;28;20167;-74
2021/09/03 04:57:23;;;;;;;1.17;0.93;;;12.90;99.90;;;;;;5070248;28;20206;-73
2021/09/03 04:59:49;;;;;;;0.93;0.82;;;13.00;99.90;;;;;;5088325;28;20164;-73
2021/09/03 05:02:15;;;;;;;0.15;0.15;;;13.20;99.90;;;;;;5070483;28;20171;-73
2021/09/03 05:04:41;;;;;;;0.30;0.30;;;13.30;99.90;;;;;;5092207;28;20199;-75
2021/09/03 05:07:07;;;;;;;1.58;1.35;;;13.80;99.90;;;;;;5091752;28;20203;-74
2021/09/03 05:09:32;;;;;;;0.57;0.57;;;14.00;99.90;;;;;;5074253;28;20168;-75
2021/09/03 05:11:58;;;;;;;0.55;0.55;;;14.30;99.90;;;;;;5092160;28;20164;-75
2021/09/03 05:14:24;;;;;;;1.65;1.33;;;14.70;99.90;;;;;;5073918;28;20183;-76
2021/09/03 05:16:50;;;;;;;3.17;2.53;;;15.70;99.90;;;;;;5092138;28;20206;-76
2021/09/03 05:19:16;;;;;;;11.55;1.13;;;16.20;99.90;;;;;;5091940;28;20156;-75
2021/09/03 05:21:41;;;;;;;1.25;1.15;;;16.40;99.90;;;;;;5091558;28;20164;-75
2021/09/03 05:24:07;;;;;;;0.70;0.70;;;16.20;99.90;;;;;;5073547;28;20196;-76
2021/09/03 05:26:33;;;;;;;0.22;0.22;;;16.20;99.90;;;;;;5091497;28;20289;-75
2021/09/03 05:29:00;;;;;;;8.48;1.80;;;16.50;99.90;;;;;;5091646;28;20742;-77
2021/09/03 05:31:25;;;;;;;0.50;0.43;;;16.50;99.90;;;;;;5091702;28;20235;-76
2021/09/03 05:33:51;;;;;;;0.45;0.45;;;16.20;99.90;;;;;;5073640;28;20229;-76
2021/09/03 05:36:17;;;;;;;0.35;0.35;;;16.30;99.90;;;;;;5091499;28;20262;-76
2021/09/03 05:38:43;;;;;;;0.40;0.40;;;16.50;99.90;;;;;;5073548;28;20175;-76
2021/09/03 05:41:09;;;;;;;1.58;1.48;;;16.80;99.90;;;;;;5091328;28;20263;-75
2021/09/03 05:43:35;;;;;;;1.92;1.83;;;17.00;99.90;;;;;;5090750;28;20187;-76
2021/09/03 05:46:01;;;;;;;9.10;1.45;;;16.90;99.90;;;;;;5106317;28;20258;-75
2021/09/03 05:48:27;;;;;;;2.50;1.52;;;17.80;99.90;;;;;;5111800;28;20164;-76
2021/09/03 05:50:53;;;;;;;0.47;0.47;;;18.40;99.90;;;;;;5093438;28;20197;-76
2021/09/03 05:53:19;;;;;;;4.20;0.65;;;18.30;99.90;;;;;;5080485;28;20235;-76
2021/09/03 05:55:45;;;;;;;2.70;1.73;;;18.10;99.90;;;;;;5091210;28;20172;-76
2021/09/03 05:58:11;;;;;;;0.43;0.43;;;19.10;99.90;;;;;;5090622;28;20198;-76
2021/09/03 06:00:37;;;;;;;1.80;1.50;;;20.10;99.90;;;;;;5091151;28;20219;-74
2021/09/03 06:03:03;;;;;;;1.45;1.38;;;20.20;99.90;;;;;;5073305;28;20263;-74
2021/09/03 06:05:29;;;;;;;3.70;1.45;;;20.60;99.90;;;;;;5091107;28;20183;-74
2021/09/03 06:07:55;;;;;;;1.02;1.02;;;20.60;99.90;;;;;;5072896;28;20195;-75
2021/09/03 06:10:20;;;;;;;2.38;1.27;;;20.50;99.90;;;;;;5089663;28;20198;-75
2021/09/03 06:12:46;;;;;;;2.17;2.08;;;20.50;99.90;;;;;;5090703;28;20231;-74
2021/09/03 06:15:12;;;;;;;1.95;0.80;;;21.00;99.90;;;;;;5072539;28;20170;-74
2021/09/03 06:17:38;;;;;;;5.28;2.38;;;21.50;99.90;;;;;;5072777;28;20529;-74
2021/09/03 06:20:06;;;;;;;1.27;0.85;;;21.40;99.90;;;;;;5090607;28;20170;-74
2021/09/03 06:22:32;;;;;;;1.77;1.23;;;21.10;99.90;;;;;;5072678;28;20167;-74
2021/09/03 06:24:58;;;;;;;1.67;1.58;;;20.50;99.90;;;;;;5090416;28;20232;-73
2021/09/03 06:27:24;;;;;;;1.35;1.25;;;19.90;99.90;;;;;;5090506;28;20211;-73
2021/09/03 06:29:53;;;;;;;2.85;1.38;;;18.50;99.90;;;;;;5090533;28;20156;-73
2021/09/03 06:32:27;;;;;;;1.17;0.63;;;18.40;99.90;;;;;;5090438;28;20152;-74
2021/09/03 06:34:57;;;;;;;6.88;0.57;;;17.90;99.90;;;;;;5090354;28;20187;-74
2021/09/03 06:37:25;;;;;;;1.08;1.02;;;18.00;99.90;;;;;;5072093;28;20168;-74
2021/09/03 06:39:52;;;;;;;1.88;1.77;;;18.10;99.90;;;;;;5072079;28;20255;-74
2021/09/03 06:42:19;;;;;;;1.10;0.85;;;17.90;99.90;;;;;;5090038;28;20187;-73
2021/09/03 06:44:45;;;;;;;22.80;1.55;;;18.10;99.90;;;;;;5089891;28;20294;-74
2021/09/03 06:47:12;;;;;;;0.28;0.28;;;17.50;99.90;;;;;;5090038;28;20196;-74
2021/09/03 06:49:40;;;;;;;1.15;1.05;;;17.20;99.90;;;;;;5089594;28;20289;-74
2021/09/03 06:52:07;;;;;;;0.85;0.85;;;17.20;99.90;;;;;;5089676;28;20163;-74
2021/09/03 06:54:34;;;;;;;0.90;0.85;;;17.00;99.90;;;;;;5086950;28;20223;-74
2021/09/03 06:57:00;;;;;;;0.85;0.82;;;17.30;99.90;;;;;;5069625;28;20172;-74
2021/09/03 06:59:27;;;;;;;0.82;0.82;;;17.30;99.90;;;;;;5089362;28;20269;-74
2021/09/03 07:01:57;;;;;;;2.70;1.65;;;17.50;99.90;;;;;;5089671;28;20191;-76
2021/09/03 07:04:23;;;;;;;0.82;0.82;;;17.60;99.90;;;;;;5087762;28;20192;-75
2021/09/03 07:06:52;;;;;;;0.82;0.80;;;17.60;99.90;;;;;;5078515;28;20195;-74
2021/09/03 07:09:19;;;;;;;1.70;1.60;;;17.40;99.90;;;;;;5071549;28;20613;-76
2021/09/03 07:11:45;;;;;;;13.60;3.28;;;17.30;99.90;;;;;;5071222;28;20179;-76
2021/09/03 07:14:11;;;;;;;2.92;1.38;;;17.30;99.90;;;;;;5089353;28;20156;-76
2021/09/03 07:16:37;;;;;;;0.40;0.40;;;17.30;99.90;;;;;;5089098;28;20219;-75
2021/09/03 07:19:03;;;;;;;0.50;0.50;;;17.40;99.90;;;;;;5094973;28;20167;-76
2021/09/03 07:21:31;;;;;;;1.55;0.60;;;17.30;99.90;;;;;;5109504;28;20230;-76
2021/09/03 07:23:59;;;;;;;0.32;0.28;;;17.40;99.90;;;;;;5074441;28;20194;-76
2021/09/03 07:26:26;;;;;;;0.85;0.63;;;17.40;99.90;;;;;;5070272;28;20188;-76
2021/09/03 07:28:51;;;;;;;2.50;2.20;;;17.40;99.90;;;;;;5088762;28;20218;-75
2021/09/03 07:31:18;;;;;;;0.95;0.95;;;17.40;99.90;;;;;;5088837;28;20156;-75
2021/09/03 07:33:43;;;;;;;0.77;0.77;;;17.60;99.90;;;;;;5071035;28;20199;-75
2021/09/03 07:36:10;;;;;;;0.38;0.38;;;17.70;99.90;;;;;;5088957;28;20188;-75
2021/09/03 07:38:36;;;;;;;2.25;0.40;;;18.00;99.90;;;;;;5070900;28;20218;-75
2021/09/03 07:41:02;;;;;;;4.13;1.02;;;17.90;99.90;;;;;;5070899;28;20160;-75
2021/09/03 07:43:28;;;;;;;1.15;1.08;;;18.00;99.90;;;;;;5088710;28;20160;-75
2021/09/03 07:45:55;;;;;;;1.13;0.65;;;18.30;99.90;;;;;;5088741;28;20255;-75
2021/09/03 07:48:22;;;;;;;3.95;1.35;;;18.40;99.90;;;;;;5089101;28;20521;-75
2021/09/03 07:50:48;;;;;;;0.75;0.75;;;18.10;99.90;;;;;;5088937;28;20152;-75
2021/09/03 07:53:14;;;;;;;0.85;0.85;;;18.50;99.90;;;;;;5100101;28;20211;-74
2021/09/03 07:55:40;;;;;;;3.75;2.05;;;18.60;99.90;;;;;;5108121;28;20186;-73
2021/09/03 07:58:06;;;;;;;0.43;0.43;;;19.00;99.90;;;;;;5108266;28;20208;-74
2021/09/03 08:00:34;;;;;;;1.08;0.85;;;18.80;99.90;;;;;;5089688;28;20199;-74
2021/09/03 08:02:59;;;;;;;0.75;0.65;;;18.90;99.90;;;;;;5105562;28;20166;-74
2021/09/03 08:05:25;;;;;;;0.50;0.50;;;19.00;99.90;;;;;;5106168;28;20179;-75
2021/09/03 08:07:51;;;;;;;0.80;0.80;;;19.00;99.90;;;;;;5107384;28;20160;-76
2021/09/03 08:10:18;;;;;;;3.10;1.40;;;19.20;99.90;;;;;;5108097;28;20202;-73
2021/09/03 08:12:45;;;;;;;0.63;0.63;;;19.80;99.90;;;;;;5086128;28;20233;-75
2021/09/03 08:15:12;;;;;;;0.52;0.52;;;20.30;99.90;;;;;;5086227;28;20164;-75
2021/09/03 08:17:38;;;;;;;0.80;0.50;;;20.60;99.90;;;;;;5106772;28;20190;-75
2021/09/03 08:20:09;;;;;;;0.20;0.20;;;20.50;99.90;;;;;;5087035;28;20314;-76
2021/09/03 08:22:35;;;;;;;0.43;0.43;;;20.00;99.90;;;;;;5087237;28;20263;-75
2021/09/03 08:25:02;;;;;;;0.43;0.43;;;19.90;99.90;;;;;;5095312;28;20237;-76
2021/09/03 08:27:28;;;;;;;4.97;1.02;;;20.30;99.90;;;;;;5107494;28;20151;-76
2021/09/03 08:29:54;;;;;;;2.92;0.38;;;19.70;99.90;;;;;;5106995;28;20199;-76
2021/09/03 08:32:20;;;;;;;0.75;0.70;;;19.70;99.90;;;;;;5088656;28;20171;-76
2021/09/03 08:34:46;;;;;;;0.77;0.65;;;20.50;99.90;;;;;;5088709;28;20240;-73
2021/09/03 08:37:12;;;;;;;1.13;1.08;;;21.30;99.90;;;;;;5105313;28;20167;-76
2021/09/03 08:39:39;;;;;;;0.88;0.88;;;21.80;99.90;;;;;;5088332;28;20178;-75
2021/09/03 08:42:05;;;;;;;0.50;0.50;;;22.40;99.90;;;;;;5088871;28;20190;-73
2021/09/03 08:44:31;;;;;;;0.40;0.38;;;23.20;99.90;;;;;;5088897;28;20256;-74
2021/09/03 08:46:58;;;;;;;0.90;0.63;;;24.40;99.90;;;;;;5114342;28;20217;-74
2021/09/03 08:49:24;;;;;;;0.52;0.52;;;24.70;99.90;;;;;;5108785;28;20170;-74
2021/09/03 08:51:51;;;;;;;8.68;0.60;;;24.10;99.90;;;;;;5064265;28;1267530;-78
2021/09/03 08:54:19;;;;;;;0.45;0.43;;;24.00;99.90;;;;;;5128289;28;20523;-74
2021/09/03 08:56:45;;;;;;;0.57;0.28;;;23.40;99.90;;;;;;5112661;28;20221;-74
2021/09/03 08:59:11;;;;;;;1.65;1.40;;;23.20;99.90;;;;;;5089650;28;20217;-74
2021/09/03 09:01:37;;;;;;;0.77;0.77;;;23.80;99.90;;;;;;5089773;28;20171;-74
2021/09/03 09:04:13;;;;;;;0.90;0.63;;;23.90;99.90;;;;;;5089377;28;20195;-74
2021/09/03 09:07:02;;;;;;;0.77;0.77;;;23.40;99.90;;;;;;5107729;28;20194;-76
2021/09/03 09:09:33;;;;;;;3.17;1.00;;;23.60;99.90;;;;;;5107684;28;20170;-75
2021/09/03 09:12:10;;;;;;;3.22;0.98;;;23.90;99.90;;;;;;5089765;28;20163;-76
2021/09/03 09:14:57;;;;;;;1.30;0.50;;;23.60;99.90;;;;;;5087248;28;20194;-76
2021/09/03 09:17:33;;;;;;;0.20;0.20;;;23.80;99.90;;;;;;5123523;28;20214;-75
2021/09/03 09:20:00;;;;;;;0.95;0.95;;;24.50;99.90;;;;;;5114249;28;20202;-77
2021/09/03 09:22:26;;;;;;;1.70;0.73;;;24.90;99.90;;;;;;5107830;28;20160;-76
2021/09/03 09:25:16;;;;;;;1.48;1.38;;;25.70;99.90;;;;;;5089514;28;20193;-74
2021/09/03 09:27:42;;;;;;;0.68;0.68;;;25.60;99.90;;;;;;5107658;28;20186;-75
2021/09/03 09:30:25;;;;;;;0.70;0.70;;;25.30;99.90;;;;;;5107685;28;20144;-75
2021/09/03 09:33:15;;;;;;;0.75;0.73;;;24.70;99.90;;;;;;5107457;28;20151;-75
2021/09/03 09:35:51;;;;;;;1.20;1.13;;;25.50;99.90;;;;;;5105750;28;20171;-75
2021/09/03 09:38:22;;;;;;;0.68;0.68;;;26.40;99.90;;;;;;5107478;28;20198;-75
2021/09/03 09:40:58;;;;;;;0.68;0.68;;;26.50;99.90;;;;;;5089238;28;20190;-75
2021/09/03 09:43:28;;;;;;;0.70;0.57;;;25.50;99.90;;;;;;5107370;28;20180;-74
2021/09/03 09:46:12;;;;;;;0.77;0.60;;;24.40;99.90;;;;;;5106723;28;20249;-75
2021/09/03 09:48:53;;;;;;;1.08;0.73;;;24.00;99.90;;;;;;5113816;28;20162;-74
2021/09/03 09:51:23;;;;;;;0.65;0.65;;;24.40;99.90;;;;;;5102666;28;20166;-75
2021/09/03 09:53:53;;;;;;;0.88;0.68;;;25.00;99.90;;;;;;5095158;28;20265;-74
2021/09/03 09:56:20;;;;;;;1.00;0.95;;;24.60;99.90;;;;;;5092624;28;20226;-75
2021/09/03 09:58:47;;;;;;;0.77;0.77;;;24.90;99.90;;;;;;5110934;28;20639;-74
2021/09/03 10:01:13;;;;;;;1.50;1.40;;;25.20;99.90;;;;;;5110765;28;20164;-74
2021/09/03 10:03:39;;;;;;;0.10;0.10;;;25.10;99.90;;;;;;5091761;28;20167;-74
2021/09/03 10:06:05;;;;;;;1.52;1.27;;;24.50;99.90;;;;;;5110160;28;20167;-73
2021/09/03 10:08:31;;;;;;;0.70;0.70;;;25.60;99.90;;;;;;5110351;28;20205;-72
2021/09/03 10:10:57;;;;;;;0.35;0.35;;;25.10;99.90;;;;;;5092031;28;20327;-73
2021/09/03 10:13:23;;;;;;;0.82;0.82;;;24.80;99.90;;;;;;5081392;28;20191;-74
2021/09/03 10:15:49;;;;;;;0.70;0.70;;;24.80;99.90;;;;;;5097713;28;20253;-73
2021/09/03 10:18:17;;;;;;;0.40;0.40;;;26.00;99.90;;;;;;5130910;28;20162;-74
2021/09/03 10:20:43;;;;;;;0.73;0.20;;;26.20;99.90;;;;;;5111765;28;20633;-73
2021/09/03 10:23:09;;;;;;;0.57;0.40;;;25.10;99.90;;;;;;5102991;28;20315;-73
2021/09/03 10:25:53;;;;;;;0.15;0.15;;;25.50;99.90;;;;;;5091764;28;20194;-73
2021/09/03 10:28:25;;;;;;;0.55;0.55;;;25.60;99.90;;;;;;5106101;28;20166;-73
2021/09/03 10:31:08;;;;;;;1.40;0.65;;;26.80;99.90;;;;;;5130925;28;20150;-73
2021/09/03 10:33:35;;;;;;;0.90;0.82;;;27.20;99.90;;;;;;5112554;28;20162;-73
2021/09/03 10:36:02;;;;;;;0.73;0.73;;;27.50;99.90;;;;;;5130906;28;20162;-73
2021/09/03 10:38:31;;;;;;;1.08;0.65;;;26.60;99.90;;;;;;5130901;28;20155;-73
2021/09/03 10:40:58;;;;;;;0.70;0.70;;;26.40;99.90;;;;;;5130654;28;20245;-74
2021/09/03 10:43:46;;;;;;;1.13;1.10;;;25.30;99.90;;;;;;5130505;28;20222;-73
2021/09/03 10:46:15;;;;;;;0.85;0.47;;;26.10;99.90;;;;;;5105692;28;20255;-74
2021/09/03 10:48:49;;;;;;;0.40;0.40;;;26.90;99.90;;;;;;5072098;28;20226;-73
2021/09/03 10:51:33;;;;;;;0.93;0.93;;;26.90;99.90;;;;;;5071755;28;20195;-73
2021/09/03 10:53:59;;;;;;;1.30;0.60;;;27.10;99.90;;;;;;5071417;28;20227;-73
2021/09/03 10:56:33;;;;;;;0.88;0.50;;;27.30;99.90;;;;;;5071859;28;20628;-73
2021/09/03 10:59:06;;;;;;;1.20;0.93;;;28.00;99.90;;;;;;5089729;28;20160;-72
2021/09/03 11:01:35;;;;;;;0.38;0.38;;;28.70;98.00;;;;;;5070393;28;20205;-72
2021/09/03 11:04:04;;;;;;;0.47;0.47;;;28.70;99.10;;;;;;5089534;28;20233;-72
2021/09/03 11:06:37;;;;;;;1.05;0.47;;;27.70;97.40;;;;;;5069033;28;20178;-72
2021/09/03 11:09:15;;;;;;;0.60;0.60;;;27.60;98.70;;;;;;5071827;28;20166;-73
2021/09/03 11:11:45;;;;;;;1.67;1.20;;;28.10;99.90;;;;;;5071575;28;20191;-72
2021/09/03 11:14:24;;;;;;;0.98;0.65;;;26.90;99.90;;;;;;5071488;28;20174;-72
2021/09/03 11:16:56;;;;;;;1.05;0.57;;;26.60;99.90;;;;;;5096543;28;20215;-73
2021/09/03 11:19:34;;;;;;;1.98;0.47;;;27.60;99.90;;;;;;5103430;28;20173;-73
2021/09/03 11:22:29;;;;;;;1.58;1.10;;;27.70;98.10;;;;;;5091401;28;20240;-73
2021/09/03 11:25:03;;;;;;;0.95;0.95;;;26.40;99.90;;;;;;5092334;28;20260;-73
2021/09/03 11:27:30;;;;;;;0.70;0.70;;;26.20;99.90;;;;;;5110016;28;20230;-73
2021/09/03 11:30:00;;;;;;;0.73;0.52;;;26.60;99.90;;;;;;5104532;28;20174;-75
2021/09/03 11:32:28;;;;;;;0.30;0.30;;;26.50;99.90;;;;;;5097275;28;20217;-73
2021/09/03 11:34:58;;;;;;;0.15;0.15;;;27.30;99.90;;;;;;5106945;28;20163;-74
2021/09/03 11:37:41;;;;;;;0.80;0.73;;;27.50;99.90;;;;;;5084988;28;20195;-73
2021/09/03 11:40:08;;;;;;;0.65;0.40;;;28.20;99.70;;;;;;5088434;28;20217;-75
2021/09/03 11:42:36;;;;;;;1.40;0.77;;;29.40;99.80;;;;;;5087007;28;20290;-75
2021/09/03 11:45:29;;;;;;;1.45;1.23;;;29.40;98.40;;;;;;5070268;28;20260;-75
2021/09/03 11:47:58;;;;;;;0.98;0.75;;;30.50;97.00;;;;;;5070240;28;20163;-75
2021/09/03 11:50:46;;;;;;;1.27;0.85;;;31.00;96.20;;;;;;5088704;28;20194;-76
2021/09/03 11:53:25;;;;;;;1.23;0.30;;;29.70;96.60;;;;;;5078807;28;20247;-73
2021/09/03 11:55:52;;;;;;;0.65;0.65;;;29.70;97.20;;;;;;5050719;28;20200;-74
2021/09/03 11:58:22;;;;;;;1.63;1.10;;;26.60;99.00;;;;;;5068239;28;20183;-74
2021/09/03 12:00:50;;;;;;;0.32;0.32;;;24.70;99.90;;;;;;5050044;28;20252;-73
2021/09/03 12:03:18;;;;;;;0.43;0.38;;;26.90;99.90;;;;;;5066311;28;20223;-73
2021/09/03 12:05:52;;;;;;;0.50;0.47;;;29.40;98.10;;;;;;5068044;28;20183;-73
2021/09/03 12:08:31;;;;;;;0.35;0.35;;;28.60;97.50;;;;;;5049999;28;20214;-73
2021/09/03 12:11:04;;;;;;;0.52;0.30;;;26.40;99.70;;;;;;5067137;28;20231;-75
2021/09/03 12:13:36;;;;;;;0.52;0.52;;;28.40;98.00;;;;;;5068083;28;20166;-75
2021/09/03 12:16:22;;;;;;;1.23;0.70;;;28.30;98.80;;;;;;5064809;28;20166;-74
2021/09/03 12:18:50;;;;;;;0.43;0.43;;;27.70;98.40;;;;;;5108135;28;20654;-73
2021/09/03 12:21:25;;;;;;;1.45;1.30;;;25.60;99.90;;;;;;5103629;28;20170;-73
2021/09/03 12:23:54;;;;;;;1.08;0.93;;;25.10;99.90;;;;;;5096206;28;20175;-72
2021/09/03 12:26:47;;;;;;;0.63;0.63;;;24.40;99.90;;;;;;5087896;28;20156;-73
2021/09/03 12:29:14;;;;;;;0.93;0.90;;;24.00;99.90;;;;;;5067890;28;20547;-73
2021/09/03 12:31:53;;;;;;;0.28;0.28;;;23.70;99.90;;;;;;5067505;28;20156;-73
2021/09/03 12:34:22;;;;;;;0.45;0.40;;;23.60;99.90;;;;;;5049993;28;20214;-73
2021/09/03 12:36:59;;;;;;;0.47;0.30;;;23.20;99.90;;;;;;5067900;28;20171;-73
2021/09/03 12:39:26;;;;;;;1.10;0.65;;;22.80;99.90;;;;;;5061643;28;20316;-73
2021/09/03 12:41:53;;;;;;;0.68;0.55;;;23.10;99.90;;;;;;5089881;28;20261;-73
2021/09/03 12:44:30;;;;;;;1.65;1.13;;;23.30;99.90;;;;;;5107646;28;20182;-73
2021/09/03 12:47:03;;;;;;;0.43;0.43;;;23.20;99.90;;;;;;5107866;28;20634;-72
2021/09/03 12:49:33;;;;;;;0.55;0.55;;;23.20;99.90;;;;;;5107899;28;20266;-74